Time;durP1;ratioP1;P1;durP2;ratioP2;P2;SDS_P1;SDS_P2;PMS_P1;PMS_P2;Temp;Humidity;BMP_temperature;BMP_pressure;BME280_temperature;BME280_humidity;BME280_pressure;Samples;Min_cycle;Max_cycle;Signal;HPM_P1;HPM_P2
2021/08/18 00:01:36;;;;;;;20.52;8.35;;;;;;;;;;5030359;28;20022;-83
2021/08/18 00:04:02;;;;;;;18.27;7.87;;;;;;;;;;5031855;28;20103;-82
2021/08/18 00:06:27;;;;;;;17.73;7.82;;;;;;;;;;5031822;28;20025;-83
2021/08/18 00:08:52;;;;;;;19.50;8.50;;;;;;;;;;5031856;28;20030;-82
2021/08/18 00:11:18;;;;;;;22.30;8.55;;;;;;;;;;5031659;28;20271;-83
2021/08/18 00:13:43;;;;;;;21.02;8.20;;;;;;;;;;5034086;28;20080;-83
2021/08/18 00:16:08;;;;;;;17.58;8.30;;;;;;;;;;5033780;28;20046;-83
2021/08/18 00:18:34;;;;;;;17.15;7.57;;;;;;;;;;5033340;28;20064;-82
2021/08/18 00:20:59;;;;;;;22.42;7.07;;;;;;;;;;5031148;28;20359;-83
2021/08/18 00:23:24;;;;;;;14.10;7.40;;;;;;;;;;5031543;28;20035;-82
2021/08/18 00:25:49;;;;;;;18.83;7.72;;;;;;;;;;5030914;28;20275;-83
2021/08/18 00:28:15;;;;;;;18.55;8.05;;;;;;;;;;5031123;28;20021;-82
2021/08/18 00:30:40;;;;;;;18.90;7.70;;;;;;;;;;5029659;28;20481;-83
2021/08/18 00:33:06;;;;;;;18.88;6.85;;;;;;;;;;5031198;28;20067;-83
2021/08/18 00:35:32;;;;;;;19.50;7.38;;;;;;;;;;5032365;28;20430;-84
2021/08/18 00:37:57;;;;;;;18.95;6.97;;;;;;;;;;5039659;28;20026;-83
2021/08/18 00:40:22;;;;;;;18.17;7.28;;;;;;;;;;5032786;28;20029;-83
2021/08/18 00:42:48;;;;;;;18.97;7.27;;;;;;;;;;5031306;28;20078;-82
2021/08/18 00:45:14;;;;;;;16.08;7.20;;;;;;;;;;5029704;28;20260;-82
2021/08/18 00:47:43;;;;;;;13.32;6.38;;;;;;;;;;5030884;28;20021;-82
2021/08/18 00:50:10;;;;;;;16.73;7.07;;;;;;;;;;5030908;28;20100;-83
2021/08/18 00:52:36;;;;;;;13.85;6.35;;;;;;;;;;5029100;28;20048;-82
2021/08/18 00:55:01;;;;;;;15.18;6.25;;;;;;;;;;5030832;28;20132;-82
2021/08/18 00:57:26;;;;;;;16.77;6.53;;;;;;;;;;5030782;28;20026;-82
2021/08/18 00:59:51;;;;;;;23.63;6.43;;;;;;;;;;5031434;28;20310;-83
2021/08/18 01:02:17;;;;;;;15.32;6.03;;;;;;;;;;5032107;28;20264;-83
2021/08/18 01:04:42;;;;;;;13.52;5.47;;;;;;;;;;5034023;28;20031;-83
2021/08/18 01:07:07;;;;;;;11.43;5.28;;;;;;;;;;5033376;28;20045;-83
2021/08/18 01:09:34;;;;;;;13.52;5.68;;;;;;;;;;5032508;28;20035;-83
2021/08/18 01:12:00;;;;;;;10.80;5.53;;;;;;;;;;5031890;28;20013;-83
2021/08/18 01:14:25;;;;;;;15.95;6.03;;;;;;;;;;5031468;28;20021;-82
2021/08/18 01:16:50;;;;;;;13.93;5.87;;;;;;;;;;5031322;28;20393;-83
2021/08/18 01:19:17;;;;;;;12.75;5.32;;;;;;;;;;5030607;28;20288;-83
2021/08/18 01:21:42;;;;;;;13.52;5.15;;;;;;;;;;5030575;28;20025;-83
2021/08/18 01:24:09;;;;;;;12.73;5.43;;;;;;;;;;5032091;28;20028;-84
2021/08/18 01:26:35;;;;;;;18.23;5.93;;;;;;;;;;5036371;28;20025;-84
2021/08/18 01:29:01;;;;;;;12.95;6.07;;;;;;;;;;5033727;28;20481;-83
2021/08/18 01:31:27;;;;;;;12.48;5.38;;;;;;;;;;5031425;28;20028;-83
2021/08/18 01:33:52;;;;;;;12.30;5.82;;;;;;;;;;5031874;28;20032;-83
2021/08/18 01:36:18;;;;;;;17.38;6.00;;;;;;;;;;5031952;28;20491;-83
2021/08/18 01:38:43;;;;;;;14.82;5.82;;;;;;;;;;5035373;28;20701;-83
2021/08/18 01:41:09;;;;;;;11.80;5.63;;;;;;;;;;5033251;28;20025;-83
2021/08/18 01:43:34;;;;;;;21.48;6.93;;;;;;;;;;5034541;28;20056;-83
2021/08/18 01:45:59;;;;;;;9.32;5.00;;;;;;;;;;5036565;28;20025;-84
2021/08/18 01:48:25;;;;;;;15.77;5.00;;;;;;;;;;5039622;28;20056;-83
2021/08/18 01:50:52;;;;;;;12.43;5.10;;;;;;;;;;5036565;28;20355;-83
2021/08/18 01:53:25;;;;;;;13.05;5.25;;;;;;;;;;5036864;28;20400;-83
2021/08/18 01:55:50;;;;;;;14.40;5.03;;;;;;;;;;5035873;28;20021;-83
2021/08/18 01:58:15;;;;;;;12.10;5.40;;;;;;;;;;5035196;28;20022;-82
2021/08/18 02:00:41;;;;;;;14.02;6.18;;;;;;;;;;5033240;28;20053;-82
2021/08/18 02:03:06;;;;;;;14.45;5.75;;;;;;;;;;5033887;28;20036;-82
2021/08/18 02:05:31;;;;;;;9.77;4.88;;;;;;;;;;5032450;28;20064;-82
2021/08/18 02:07:57;;;;;;;11.55;5.07;;;;;;;;;;5032413;28;20029;-83
2021/08/18 02:10:22;;;;;;;12.02;5.68;;;;;;;;;;5036073;28;20189;-83
2021/08/18 02:12:48;;;;;;;10.65;5.40;;;;;;;;;;5037734;28;20053;-83
2021/08/18 02:15:16;;;;;;;11.43;5.47;;;;;;;;;;5036333;28;20409;-83
2021/08/18 02:17:42;;;;;;;11.18;4.82;;;;;;;;;;5036186;28;20068;-83
2021/08/18 02:20:08;;;;;;;12.60;5.63;;;;;;;;;;5034931;28;20075;-83
2021/08/18 02:22:34;;;;;;;9.93;4.90;;;;;;;;;;5032824;28;20021;-83
2021/08/18 02:24:59;;;;;;;12.87;5.87;;;;;;;;;;5032405;28;20025;-82
2021/08/18 02:27:24;;;;;;;11.18;5.70;;;;;;;;;;5033582;28;20268;-82
2021/08/18 02:29:49;;;;;;;11.67;4.63;;;;;;;;;;5033572;28;20033;-83
2021/08/18 02:32:14;;;;;;;8.93;4.60;;;;;;;;;;5033024;28;20025;-82
2021/08/18 02:34:40;;;;;;;15.13;5.47;;;;;;;;;;5033400;28;20040;-82
2021/08/18 02:37:05;;;;;;;10.63;4.55;;;;;;;;;;5038089;28;20256;-83
2021/08/18 02:39:30;;;;;;;12.80;4.55;;;;;;;;;;5037123;28;20025;-83
2021/08/18 02:41:56;;;;;;;12.45;4.75;;;;;;;;;;5036056;28;20363;-83
2021/08/18 02:44:21;;;;;;;9.27;5.00;;;;;;;;;;5035018;28;20099;-83
2021/08/18 02:46:46;;;;;;;11.80;4.30;;;;;;;;;;5034923;28;20116;-83
2021/08/18 02:49:11;;;;;;;10.10;4.50;;;;;;;;;;5032753;28;20826;-82
2021/08/18 02:51:38;;;;;;;13.53;4.70;;;;;;;;;;5033194;28;20036;-83
2021/08/18 02:54:04;;;;;;;14.55;5.15;;;;;;;;;;5032939;28;20339;-83
2021/08/18 02:56:29;;;;;;;8.70;4.57;;;;;;;;;;5032829;28;20137;-82
2021/08/18 02:58:54;;;;;;;11.35;4.78;;;;;;;;;;5032845;28;20296;-83
2021/08/18 03:01:19;;;;;;;11.40;4.80;;;;;;;;;;5031506;28;20028;-83
2021/08/18 03:03:44;;;;;;;8.67;4.13;;;;;;;;;;5032600;28;20339;-82
2021/08/18 03:06:10;;;;;;;12.38;5.40;;;;;;;;;;5034669;28;20352;-83
2021/08/18 03:08:35;;;;;;;9.40;4.80;;;;;;;;;;5037240;28;20060;-83
2021/08/18 03:11:00;;;;;;;11.90;4.17;;;;;;;;;;5033881;28;20601;-83
2021/08/18 03:13:25;;;;;;;13.03;4.53;;;;;;;;;;5031238;28;20025;-82
2021/08/18 03:15:51;;;;;;;12.10;4.82;;;;;;;;;;5032624;28;20303;-83
2021/08/18 03:18:16;;;;;;;13.33;4.80;;;;;;;;;;5032506;28;20029;-83
2021/08/18 03:20:41;;;;;;;12.37;5.47;;;;;;;;;;5032537;28;20106;-82
2021/08/18 03:23:06;;;;;;;8.93;4.37;;;;;;;;;;5030964;28;20029;-83
2021/08/18 03:25:32;;;;;;;10.30;4.30;;;;;;;;;;5030939;28;20261;-83
2021/08/18 03:27:57;;;;;;;10.35;4.07;;;;;;;;;;5032343;28;20264;-83
2021/08/18 03:30:22;;;;;;;10.38;4.13;;;;;;;;;;5032076;28;20060;-82
2021/08/18 03:32:47;;;;;;;9.38;3.70;;;;;;;;;;5032027;28;20501;-82
2021/08/18 03:35:13;;;;;;;8.43;3.67;;;;;;;;;;5032153;28;20065;-83
2021/08/18 03:37:38;;;;;;;4.30;2.58;;;;;;;;;;5034912;28;20013;-83
2021/08/18 03:40:04;;;;;;;5.70;3.63;;;;;;;;;;5031866;28;20420;-83
2021/08/18 03:42:29;;;;;;;4.60;2.20;;;;;;;;;;5031530;28;20024;-82
2021/08/18 03:44:54;;;;;;;5.47;2.53;;;;;;;;;;5032036;28;20029;-83
2021/08/18 03:47:19;;;;;;;6.17;2.87;;;;;;;;;;5030652;28;20278;-83
2021/08/18 03:49:45;;;;;;;4.05;2.40;;;;;;;;;;5031991;28;20060;-83
2021/08/18 03:52:10;;;;;;;5.40;2.47;;;;;;;;;;5031616;28;20370;-82
2021/08/18 03:54:35;;;;;;;6.72;2.20;;;;;;;;;;5031236;28;20257;-82
2021/08/18 03:57:00;;;;;;;4.67;2.30;;;;;;;;;;5036485;28;20541;-83
2021/08/18 03:59:25;;;;;;;7.83;2.27;;;;;;;;;;5034518;28;20014;-83
2021/08/18 04:01:51;;;;;;;5.87;2.27;;;;;;;;;;5031332;28;20271;-83
2021/08/18 04:04:16;;;;;;;3.97;2.20;;;;;;;;;;5047829;28;20272;-83
2021/08/18 04:06:41;;;;;;;5.40;2.20;;;;;;;;;;5045014;28;20017;-83
2021/08/18 04:09:06;;;;;;;4.17;2.00;;;;;;;;;;5021790;28;20261;-83
2021/08/18 04:11:31;;;;;;;2.57;2.13;;;;;;;;;;5026282;28;20264;-84
2021/08/18 04:13:59;;;;;;;5.33;2.20;;;;;;;;;;5033409;28;20100;-84
2021/08/18 04:16:27;;;;;;;5.75;2.00;;;;;;;;;;5028195;28;20132;-83
2021/08/18 04:18:52;;;;;;;6.22;2.80;;;;;;;;;;5045002;28;20027;-83
2021/08/18 04:21:17;;;;;;;4.70;2.77;;;;;;;;;;5033080;28;20473;-83
2021/08/18 04:23:43;;;;;;;8.30;3.10;;;;;;;;;;5041181;28;20021;-83
2021/08/18 04:26:08;;;;;;;7.82;2.88;;;;;;;;;;5053905;28;20516;-84
2021/08/18 04:28:33;;;;;;;14.40;3.33;;;;;;;;;;5039555;28;20021;-84
2021/08/18 04:30:58;;;;;;;6.77;2.83;;;;;;;;;;5038936;28;20031;-83
2021/08/18 04:33:24;;;;;;;10.63;4.20;;;;;;;;;;5048739;28;20338;-84
2021/08/18 04:35:49;;;;;;;9.67;3.63;;;;;;;;;;5031464;28;20370;-83
2021/08/18 04:38:14;;;;;;;5.90;3.38;;;;;;;;;;5036156;28;20783;-84
2021/08/18 04:40:40;;;;;;;12.18;3.30;;;;;;;;;;5053511;28;20025;-84
2021/08/18 04:43:05;;;;;;;6.07;3.55;;;;;;;;;;5036166;28;20013;-84
2021/08/18 04:45:30;;;;;;;6.43;3.67;;;;;;;;;;5042597;28;20029;-84
2021/08/18 04:47:55;;;;;;;6.85;3.55;;;;;;;;;;5040502;28;20276;-84
2021/08/18 04:50:21;;;;;;;6.10;3.40;;;;;;;;;;5043048;28;20439;-83
2021/08/18 04:52:46;;;;;;;10.07;3.03;;;;;;;;;;5031977;28;20424;-83
2021/08/18 04:55:13;;;;;;;8.05;3.53;;;;;;;;;;5044134;28;20083;-83
2021/08/18 04:57:38;;;;;;;9.93;3.83;;;;;;;;;;5028408;28;20022;-83
2021/08/18 05:00:04;;;;;;;9.20;3.70;;;;;;;;;;5026876;28;20500;-83
2021/08/18 05:02:31;;;;;;;3.60;2.35;;;;;;;;;;5028840;28;20260;-84
2021/08/18 05:05:00;;;;;;;6.07;3.17;;;;;;;;;;5044907;28;20021;-83
2021/08/18 05:07:25;;;;;;;9.68;3.00;;;;;;;;;;5028013;28;20090;-83
2021/08/18 05:09:51;;;;;;;5.93;2.70;;;;;;;;;;5039105;28;20107;-83
2021/08/18 05:12:16;;;;;;;4.57;1.90;;;;;;;;;;5034596;28;20260;-83
2021/08/18 05:14:41;;;;;;;8.85;3.50;;;;;;;;;;5043808;28;20049;-83
2021/08/18 05:17:07;;;;;;;7.97;2.53;;;;;;;;;;5029187;28;20021;-83
2021/08/18 05:19:32;;;;;;;9.02;2.40;;;;;;;;;;5039121;28;20301;-83
2021/08/18 05:21:57;;;;;;;8.40;2.53;;;;;;;;;;5038756;28;20021;-83
2021/08/18 05:24:22;;;;;;;3.93;1.83;;;;;;;;;;5033020;28;20744;-83
2021/08/18 05:26:47;;;;;;;10.88;3.22;;;;;;;;;;5045189;28;20024;-83
2021/08/18 05:29:13;;;;;;;9.90;2.30;;;;;;;;;;5036224;28;20021;-84
2021/08/18 05:31:39;;;;;;;3.83;1.80;;;;;;;;;;5041285;28;20260;-83
2021/08/18 05:34:04;;;;;;;4.90;2.00;;;;;;;;;;5041442;28;20025;-83
2021/08/18 05:36:30;;;;;;;6.75;2.53;;;;;;;;;;5031232;28;20024;-83
2021/08/18 05:38:55;;;;;;;6.78;2.50;;;;;;;;;;5044630;28;20023;-83
2021/08/18 05:41:20;;;;;;;4.00;2.30;;;;;;;;;;5034023;28;20496;-83
2021/08/18 05:43:45;;;;;;;4.10;2.10;;;;;;;;;;5035697;28;20454;-83
2021/08/18 05:46:11;;;;;;;5.47;2.20;;;;;;;;;;5038521;28;20029;-83
2021/08/18 05:48:36;;;;;;;8.43;2.90;;;;;;;;;;5031223;28;20256;-83
2021/08/18 05:51:01;;;;;;;10.60;3.47;;;;;;;;;;5018025;28;20255;-83
2021/08/18 05:53:26;;;;;;;4.55;2.83;;;;;;;;;;5046468;28;20021;-83
2021/08/18 05:55:51;;;;;;;6.65;2.95;;;;;;;;;;5036664;28;20033;-82
2021/08/18 05:58:17;;;;;;;7.80;2.80;;;;;;;;;;5026261;28;20142;-83
2021/08/18 06:00:42;;;;;;;6.82;2.75;;;;;;;;;;5043453;28;20313;-83
2021/08/18 06:03:08;;;;;;;3.90;2.13;;;;;;;;;;5032351;28;20017;-83
2021/08/18 06:05:33;;;;;;;5.15;2.40;;;;;;;;;;5040825;28;20041;-83
2021/08/18 06:07:58;;;;;;;3.87;2.70;;;;;;;;;;5043234;28;20052;-83
2021/08/18 06:10:24;;;;;;;7.65;3.03;;;;;;;;;;5034402;28;20335;-83
2021/08/18 06:12:49;;;;;;;6.63;2.90;;;;;;;;;;5042834;28;20032;-83
2021/08/18 06:15:14;;;;;;;4.95;2.70;;;;;;;;;;5031252;28;20045;-83
2021/08/18 06:17:39;;;;;;;8.27;2.60;;;;;;;;;;5037945;28;20029;-83
2021/08/18 06:20:05;;;;;;;5.60;2.67;;;;;;;;;;5036982;28;20268;-83
2021/08/18 06:22:30;;;;;;;8.77;3.28;;;;;;;;;;5029226;28;20337;-83
2021/08/18 06:24:57;;;;;;;8.20;2.70;;;;;;;;;;5049527;28;20487;-83
2021/08/18 06:27:23;;;;;;;6.78;2.72;;;;;;;;;;5044531;28;20264;-84
2021/08/18 06:29:48;;;;;;;11.27;3.55;;;;;;;;;;5046056;28;20499;-83
2021/08/18 06:32:13;;;;;;;5.75;2.70;;;;;;;;;;5039720;28;20025;-83
2021/08/18 06:34:39;;;;;;;11.10;3.40;;;;;;;;;;5046814;28;20044;-83
2021/08/18 06:37:05;;;;;;;8.95;2.90;;;;;;;;;;5032924;28;20729;-82
2021/08/18 06:39:31;;;;;;;9.73;3.13;;;;;;;;;;5040309;28;20061;-83
2021/08/18 06:41:56;;;;;;;10.20;2.60;;;;;;;;;;5040385;28;20023;-83
2021/08/18 06:44:22;;;;;;;5.95;2.55;;;;;;;;;;5034073;28;20018;-83
2021/08/18 06:46:47;;;;;;;7.63;2.20;;;;;;;;;;5045789;28;20021;-83
2021/08/18 06:49:12;;;;;;;7.03;3.00;;;;;;;;;;5029804;28;20033;-83
2021/08/18 06:51:37;;;;;;;5.87;2.73;;;;;;;;;;5041183;28;20052;-83
2021/08/18 06:54:02;;;;;;;10.67;2.67;;;;;;;;;;5042745;28;20276;-83
2021/08/18 06:56:28;;;;;;;8.00;2.80;;;;;;;;;;5042716;28;20284;-83
2021/08/18 06:58:53;;;;;;;9.50;2.50;;;;;;;;;;5031416;28;20025;-83
2021/08/18 07:01:18;;;;;;;8.63;2.77;;;;;;;;;;5037161;28;20252;-83
2021/08/18 07:03:43;;;;;;;11.13;2.27;;;;;;;;;;5040963;28;20284;-83
2021/08/18 07:06:08;;;;;;;12.07;2.87;;;;;;;;;;5041833;28;20020;-83
2021/08/18 07:08:33;;;;;;;8.65;2.60;;;;;;;;;;5033578;28;20030;-83
2021/08/18 07:10:59;;;;;;;12.93;3.33;;;;;;;;;;5046429;28;20349;-83
2021/08/18 07:13:24;;;;;;;7.20;2.80;;;;;;;;;;5037208;28;20795;-83
2021/08/18 07:15:49;;;;;;;10.75;2.53;;;;;;;;;;5042583;28;20050;-83
2021/08/18 07:18:14;;;;;;;10.13;2.60;;;;;;;;;;5046407;28;20021;-83
2021/08/18 07:20:39;;;;;;;11.40;2.77;;;;;;;;;;5032830;28;20099;-83
2021/08/18 07:23:05;;;;;;;13.03;3.30;;;;;;;;;;5044611;28;20420;-83
2021/08/18 07:25:30;;;;;;;13.40;2.30;;;;;;;;;;5035318;28;20747;-83
2021/08/18 07:27:55;;;;;;;21.00;3.13;;;;;;;;;;5036507;28;20048;-83
2021/08/18 07:30:20;;;;;;;12.32;3.20;;;;;;;;;;5042590;28;20554;-83
2021/08/18 07:32:46;;;;;;;10.63;2.47;;;;;;;;;;5030297;28;20626;-83
2021/08/18 07:35:11;;;;;;;12.13;3.00;;;;;;;;;;5047010;28;20283;-84
2021/08/18 07:37:37;;;;;;;12.93;3.00;;;;;;;;;;5041674;28;20308;-83
2021/08/18 07:40:03;;;;;;;10.30;2.60;;;;;;;;;;5037708;28;20025;-83
2021/08/18 07:42:28;;;;;;;13.77;2.47;;;;;;;;;;5043454;28;20501;-83
2021/08/18 07:44:53;;;;;;;8.63;2.50;;;;;;;;;;5030226;28;20025;-83
2021/08/18 07:47:19;;;;;;;11.57;2.90;;;;;;;;;;5035361;28;20024;-83
2021/08/18 07:49:44;;;;;;;12.75;2.88;;;;;;;;;;5040990;28;20847;-83
2021/08/18 07:52:09;;;;;;;7.32;2.35;;;;;;;;;;5041777;28;20378;-83
2021/08/18 07:54:34;;;;;;;10.20;2.03;;;;;;;;;;5030585;28;20473;-84
2021/08/18 07:57:00;;;;;;;13.98;2.63;;;;;;;;;;5047247;28;20282;-83
2021/08/18 07:59:25;;;;;;;7.40;1.83;;;;;;;;;;5043336;28;20057;-83
2021/08/18 08:01:50;;;;;;;5.87;1.83;;;;;;;;;;5038681;28;20472;-83
2021/08/18 08:04:16;;;;;;;11.27;2.45;;;;;;;;;;5043326;28;20267;-84
2021/08/18 08:06:41;;;;;;;8.50;1.93;;;;;;;;;;5032419;28;20104;-83
2021/08/18 08:09:06;;;;;;;14.57;2.30;;;;;;;;;;5043987;28;20339;-83
2021/08/18 08:11:31;;;;;;;12.20;2.30;;;;;;;;;;5031782;28;20033;-83
2021/08/18 08:13:56;;;;;;;13.57;2.38;;;;;;;;;;5036339;28;20259;-83
2021/08/18 08:16:22;;;;;;;10.20;2.15;;;;;;;;;;5032437;28;20056;-83
2021/08/18 08:18:47;;;;;;;10.87;2.07;;;;;;;;;;5047073;28;20024;-84
2021/08/18 08:21:12;;;;;;;12.50;2.80;;;;;;;;;;5035459;28;20287;-83
2021/08/18 08:23:38;;;;;;;7.38;1.98;;;;;;;;;;5039428;28;20477;-83
2021/08/18 08:26:03;;;;;;;6.50;2.15;;;;;;;;;;5039630;28;20033;-83
2021/08/18 08:28:28;;;;;;;10.30;1.70;;;;;;;;;;5031938;28;20377;-83
2021/08/18 08:30:53;;;;;;;10.67;2.47;;;;;;;;;;5041820;28;20310;-83
2021/08/18 08:33:19;;;;;;;6.23;1.50;;;;;;;;;;5032795;28;20295;-83
2021/08/18 08:35:44;;;;;;;5.82;1.70;;;;;;;;;;5038221;28;20284;-83
2021/08/18 08:38:09;;;;;;;5.30;1.40;;;;;;;;;;5041225;28;20020;-83
2021/08/18 08:40:37;;;;;;;10.05;2.33;;;;;;;;;;5034882;28;20024;-84
2021/08/18 08:43:03;;;;;;;5.93;1.58;;;;;;;;;;5016341;28;20108;-83
2021/08/18 08:45:30;;;;;;;5.35;1.67;;;;;;;;;;5040696;28;20028;-83
2021/08/18 08:47:56;;;;;;;4.80;1.33;;;;;;;;;;5041168;28;20025;-83
2021/08/18 08:50:21;;;;;;;6.37;1.93;;;;;;;;;;5032728;28;20032;-83
2021/08/18 08:52:47;;;;;;;5.25;1.20;;;;;;;;;;5044015;28;20378;-83
2021/08/18 08:55:12;;;;;;;6.97;1.70;;;;;;;;;;5032714;28;20082;-83
2021/08/18 08:57:44;;;;;;;6.70;1.45;;;;;;;;;;5041213;28;20017;-83
2021/08/18 09:00:10;;;;;;;8.00;1.83;;;;;;;;;;5035126;28;20036;-83
2021/08/18 09:02:35;;;;;;;7.72;2.25;;;;;;;;;;5047790;28;20021;-83
2021/08/18 09:05:00;;;;;;;3.80;2.07;;;;;;;;;;5033678;28;20036;-83
2021/08/18 09:07:25;;;;;;;6.38;1.60;;;;;;;;;;5039250;28;20028;-83
2021/08/18 09:09:55;;;;;;;3.40;1.10;;;;;;;;;;5036839;28;20031;-83
2021/08/18 09:12:21;;;;;;;8.13;1.60;;;;;;;;;;5032946;28;20068;-83
2021/08/18 09:14:46;;;;;;;4.82;1.90;;;;;;;;;;5044340;28;20045;-83
2021/08/18 09:17:27;;;;;;;5.43;1.50;;;;;;;;;;5031200;28;20017;-83
2021/08/18 09:20:08;;;;;;;5.53;1.65;;;;;;;;;;5037836;28;20022;-83
2021/08/18 09:22:39;;;;;;;8.73;1.60;;;;;;;;;;5047256;28;20431;-83
2021/08/18 09:25:11;;;;;;;7.40;2.03;;;;;;;;;;5045979;28;20272;-83
2021/08/18 09:27:37;;;;;;;10.82;2.00;;;;;;;;;;5035388;28;20503;-83
2021/08/18 09:30:03;;;;;;;8.05;1.98;;;;;;;;;;5035027;28;20105;-83
2021/08/18 09:32:33;;;;;;;9.00;2.35;;;;;;;;;;5041975;28;20021;-83
2021/08/18 09:34:58;;;;;;;3.65;1.42;;;;;;;;;;5030222;28;20021;-83
2021/08/18 09:37:24;;;;;;;7.43;1.40;;;;;;;;;;5039444;28;20028;-83
2021/08/18 09:39:50;;;;;;;6.25;1.60;;;;;;;;;;5037715;28;20267;-83
2021/08/18 09:42:32;;;;;;;2.78;1.40;;;;;;;;;;5035201;28;20022;-83
2021/08/18 09:45:32;;;;;;;4.28;1.33;;;;;;;;;;5045537;28;20476;-83
2021/08/18 09:48:01;;;;;;;7.40;1.95;;;;;;;;;;5022983;28;20080;-83
2021/08/18 09:50:30;;;;;;;3.22;1.33;;;;;;;;;;5040719;28;20150;-83
2021/08/18 09:53:04;;;;;;;8.13;1.88;;;;;;;;;;5029635;28;20025;-83
2021/08/18 09:55:29;;;;;;;4.47;1.52;;;;;;;;;;5045585;28;20030;-84
2021/08/18 09:57:54;;;;;;;6.53;1.60;;;;;;;;;;5035401;28;20021;-84
2021/08/18 10:00:20;;;;;;;6.23;1.80;;;;;;;;;;5049980;28;20255;-84
2021/08/18 10:02:45;;;;;;;5.15;1.40;;;;;;;;;;5039933;28;20017;-84
2021/08/18 10:05:12;;;;;;;6.57;1.53;;;;;;;;;;5057884;28;20025;-83
2021/08/18 10:07:37;;;;;;;10.63;1.90;;;;;;;;;;5048379;28;20260;-83
2021/08/18 10:10:03;;;;;;;5.60;2.03;;;;;;;;;;5036873;28;20040;-83
2021/08/18 10:12:31;;;;;;;6.95;2.58;;;;;;;;;;5047372;28;20056;-83
2021/08/18 10:15:01;;;;;;;8.02;2.10;;;;;;;;;;5034684;28;20080;-83
2021/08/18 10:17:27;;;;;;;9.95;2.03;;;;;;;;;;5044623;28;20063;-83
2021/08/18 10:19:52;;;;;;;9.10;2.20;;;;;;;;;;5041188;28;20021;-83
2021/08/18 10:22:27;;;;;;;5.68;2.13;;;;;;;;;;5038286;28;20030;-83
2021/08/18 10:24:52;;;;;;;5.57;1.73;;;;;;;;;;5055542;28;20040;-83
2021/08/18 10:27:38;;;;;;;14.43;2.70;;;;;;;;;;5048443;28;20483;-83
2021/08/18 10:30:23;;;;;;;5.75;1.92;;;;;;;;;;5035202;28;20033;-84
2021/08/18 10:32:49;;;;;;;5.25;1.77;;;;;;;;;;5036297;28;20026;-83
2021/08/18 10:35:33;;;;;;;11.10;2.60;;;;;;;;;;5045338;28;20025;-83
2021/08/18 10:38:17;;;;;;;6.85;2.00;;;;;;;;;;5041315;28;20053;-83
2021/08/18 10:40:42;;;;;;;9.13;2.30;;;;;;;;;;5033280;28;20049;-83
2021/08/18 10:43:07;;;;;;;10.80;2.70;;;;;;;;;;5052144;28;20060;-83
2021/08/18 10:45:39;;;;;;;10.97;2.40;;;;;;;;;;5043234;28;20863;-83
2021/08/18 10:48:05;;;;;;;6.68;2.40;;;;;;;;;;5046895;28;20259;-83
2021/08/18 10:50:38;;;;;;;10.02;2.53;;;;;;;;;;5037317;28;20044;-84
2021/08/18 10:53:03;;;;;;;10.50;4.65;;;;;;;;;;5018417;28;20025;-83
2021/08/18 10:55:30;;;;;;;16.35;2.95;;;;;;;;;;5043107;28;20028;-83
2021/08/18 10:58:01;;;;;;;8.20;2.30;;;;;;;;;;5030747;28;20018;-83
2021/08/18 11:00:26;;;;;;;12.90;2.80;;;;;;;;;;5029553;28;20032;-83
2021/08/18 11:02:53;;;;;;;11.30;3.03;;;;;;;;;;5048073;28;20029;-83
2021/08/18 11:05:28;;;;;;;9.63;2.13;;;;;;;;;;5036883;28;20027;-83
2021/08/18 11:08:12;;;;;;;10.40;3.15;;;;;;;;;;5039545;28;20037;-83
2021/08/18 11:10:42;;;;;;;8.57;2.55;;;;;;;;;;5047652;28;20463;-83
2021/08/18 11:13:08;;;;;;;10.32;2.20;;;;;;;;;;5036786;28;20025;-83
2021/08/18 11:15:34;;;;;;;8.18;2.20;;;;;;;;;;5044044;28;20141;-83
2021/08/18 11:18:03;;;;;;;8.57;2.50;;;;;;;;;;5040566;28;20020;-83
2021/08/18 11:20:28;;;;;;;15.60;1.90;;;;;;;;;;5032809;28;20314;-83
2021/08/18 11:22:55;;;;;;;7.72;1.80;;;;;;;;;;5046008;28;20025;-83
2021/08/18 11:25:20;;;;;;;10.00;2.05;;;;;;;;;;5036057;28;20032;-83
2021/08/18 11:27:49;;;;;;;6.88;2.40;;;;;;;;;;5042285;28;20036;-82
2021/08/18 11:30:14;;;;;;;10.23;3.08;;;;;;;;;;5033536;28;20052;-83
2021/08/18 11:32:39;;;;;;;12.23;3.47;;;;;;;;;;5046916;28;20495;-83
2021/08/18 11:35:05;;;;;;;6.15;2.03;;;;;;;;;;5034637;28;20112;-83
2021/08/18 11:37:30;;;;;;;6.97;2.53;;;;;;;;;;5042731;28;20516;-83
2021/08/18 11:39:56;;;;;;;8.90;2.75;;;;;;;;;;5040858;28;20013;-82
2021/08/18 11:42:23;;;;;;;7.93;2.28;;;;;;;;;;5034113;28;20470;-82
2021/08/18 11:44:59;;;;;;;7.05;2.28;;;;;;;;;;5044169;28;20250;-83
2021/08/18 11:47:27;;;;;;;7.97;2.22;;;;;;;;;;5033097;28;20412;-83
2021/08/18 11:49:53;;;;;;;4.53;2.03;;;;;;;;;;5037816;28;20018;-82
2021/08/18 11:52:19;;;;;;;7.30;2.58;;;;;;;;;;5041864;28;20547;-83
2021/08/18 11:54:51;;;;;;;9.18;2.47;;;;;;;;;;5030031;28;20033;-83
2021/08/18 11:57:18;;;;;;;8.43;2.30;;;;;;;;;;5043076;28;20023;-83
2021/08/18 11:59:47;;;;;;;9.73;1.90;;;;;;;;;;5043197;28;20373;-83
2021/08/18 12:02:13;;;;;;;4.75;2.45;;;;;;;;;;5037481;28;20018;-82
2021/08/18 12:04:38;;;;;;;7.93;2.65;;;;;;;;;;5031826;28;20544;-82
2021/08/18 12:07:04;;;;;;;5.20;1.73;;;;;;;;;;5041246;28;20160;-83
2021/08/18 12:09:29;;;;;;;6.18;1.65;;;;;;;;;;5034663;28;20025;-83
2021/08/18 12:12:05;;;;;;;7.17;2.60;;;;;;;;;;5036890;28;20417;-83
2021/08/18 12:14:36;;;;;;;6.53;2.05;;;;;;;;;;5040847;28;20263;-82
2021/08/18 12:17:01;;;;;;;9.63;2.42;;;;;;;;;;5013714;28;20028;-83
2021/08/18 12:19:27;;;;;;;8.35;2.42;;;;;;;;;;5042093;28;20025;-83
2021/08/18 12:22:01;;;;;;;5.47;1.95;;;;;;;;;;5042514;28;20017;-83
2021/08/18 12:24:27;;;;;;;5.88;2.45;;;;;;;;;;5036658;28;20049;-82
2021/08/18 12:26:59;;;;;;;12.43;2.38;;;;;;;;;;5044516;28;20056;-83
2021/08/18 12:29:26;;;;;;;6.68;3.20;;;;;;;;;;5033084;28;20021;-82
2021/08/18 12:31:55;;;;;;;9.00;2.53;;;;;;;;;;5037626;28;20117;-82
2021/08/18 12:34:35;;;;;;;9.32;2.72;;;;;;;;;;5042407;28;20021;-83
2021/08/18 12:37:07;;;;;;;5.28;2.28;;;;;;;;;;5032176;28;20036;-83
2021/08/18 12:39:34;;;;;;;8.45;2.97;;;;;;;;;;5041404;28;20029;-82
2021/08/18 12:41:59;;;;;;;11.93;3.60;;;;;;;;;;5044045;28;20021;-83
2021/08/18 12:44:32;;;;;;;8.80;3.35;;;;;;;;;;5035817;28;20021;-83
2021/08/18 12:47:11;;;;;;;10.50;3.03;;;;;;;;;;5043787;28;20030;-82
2021/08/18 12:49:37;;;;;;;9.57;3.38;;;;;;;;;;5035195;28;20025;-83
2021/08/18 12:52:04;;;;;;;8.95;4.00;;;;;;;;;;5035180;28;20025;-83
2021/08/18 12:54:29;;;;;;;13.27;4.80;;;;;;;;;;5042853;28;20392;-83
2021/08/18 12:56:54;;;;;;;15.27;4.50;;;;;;;;;;5028751;28;20025;-83
2021/08/18 12:59:20;;;;;;;14.10;4.97;;;;;;;;;;5035410;28;20016;-83
2021/08/18 13:01:45;;;;;;;13.88;5.25;;;;;;;;;;5041207;28;20018;-83
2021/08/18 13:04:10;;;;;;;10.35;5.47;;;;;;;;;;5044096;28;20052;-83
2021/08/18 13:06:36;;;;;;;13.87;5.77;;;;;;;;;;5031947;28;20033;-83
2021/08/18 13:09:01;;;;;;;11.10;5.55;;;;;;;;;;5015144;28;20302;-83
2021/08/18 13:11:26;;;;;;;12.18;5.75;;;;;;;;;;5038950;28;20048;-83
2021/08/18 13:13:52;;;;;;;18.35;5.72;;;;;;;;;;5028225;28;20038;-83
2021/08/18 13:16:17;;;;;;;15.23;6.57;;;;;;;;;;5039650;28;20444;-83
2021/08/18 13:18:42;;;;;;;18.87;6.80;;;;;;;;;;5031792;28;20024;-83
2021/08/18 13:21:07;;;;;;;14.63;6.70;;;;;;;;;;5042923;28;20268;-83
2021/08/18 13:23:32;;;;;;;14.80;6.57;;;;;;;;;;5037612;28;20063;-83
2021/08/18 13:25:59;;;;;;;16.30;7.10;;;;;;;;;;5039828;28;20017;-83
2021/08/18 13:28:24;;;;;;;13.35;6.55;;;;;;;;;;5044950;28;20267;-83
2021/08/18 13:30:49;;;;;;;17.83;7.40;;;;;;;;;;5032183;28;20025;-83
2021/08/18 13:33:14;;;;;;;15.37;7.80;;;;;;;;;;5046625;28;20314;-82
2021/08/18 13:35:39;;;;;;;17.33;7.80;;;;;;;;;;5041307;28;20032;-82
2021/08/18 13:38:05;;;;;;;22.52;7.85;;;;;;;;;;5039530;28;20036;-83
2021/08/18 13:40:31;;;;;;;16.57;8.43;;;;;;;;;;5046822;28;20409;-83
2021/08/18 13:42:56;;;;;;;23.17;8.80;;;;;;;;;;5040328;28;20444;-83
2021/08/18 13:45:22;;;;;;;20.60;9.87;;;;;;;;;;5051848;28;20116;-83
2021/08/18 13:47:47;;;;;;;16.13;7.22;;;;;;;;;;5045972;28;20341;-83
2021/08/18 13:50:12;;;;;;;17.30;7.83;;;;;;;;;;5055572;28;20080;-83
2021/08/18 13:52:37;;;;;;;18.80;8.97;;;;;;;;;;5037060;28;20275;-83
2021/08/18 13:55:02;;;;;;;20.27;8.33;;;;;;;;;;5047879;28;20314;-83
2021/08/18 13:57:28;;;;;;;22.30;9.43;;;;;;;;;;5029694;28;20021;-83
2021/08/18 13:59:53;;;;;;;21.25;8.50;;;;;;;;;;5044231;28;20121;-83
2021/08/18 14:02:18;;;;;;;22.98;8.23;;;;;;;;;;5041217;28;20029;-83
2021/08/18 14:04:43;;;;;;;19.67;8.23;;;;;;;;;;5052667;28;20021;-83
2021/08/18 14:07:08;;;;;;;13.90;7.15;;;;;;;;;;5040719;28;20255;-83
2021/08/18 14:09:34;;;;;;;17.37;8.17;;;;;;;;;;5047256;28;20044;-83
2021/08/18 14:11:59;;;;;;;19.83;9.10;;;;;;;;;;5043006;28;20260;-83
2021/08/18 14:14:24;;;;;;;14.90;8.48;;;;;;;;;;5037633;28;20755;-83
2021/08/18 14:16:49;;;;;;;20.17;9.00;;;;;;;;;;5047026;28;20031;-82
2021/08/18 14:19:14;;;;;;;16.63;8.03;;;;;;;;;;5037225;28;20059;-83
2021/08/18 14:21:40;;;;;;;18.23;8.85;;;;;;;;;;5056551;28;20025;-83
2021/08/18 14:24:05;;;;;;;17.38;8.63;;;;;;;;;;5055470;28;20024;-83
2021/08/18 14:26:30;;;;;;;17.23;8.20;;;;;;;;;;5037342;28;20067;-83
2021/08/18 14:28:56;;;;;;;19.88;9.85;;;;;;;;;;5052402;28;20325;-83
2021/08/18 14:31:21;;;;;;;20.48;8.85;;;;;;;;;;5039867;28;20024;-83